Time;durP1;ratioP1;P1;durP2;ratioP2;P2;SDS_P1;SDS_P2;PMS_P1;PMS_P2;Temp;Humidity;BMP_temperature;BMP_pressure;BME280_temperature;BME280_humidity;BME280_pressure;Samples;Min_cycle;Max_cycle;Signal;HPM_P1;HPM_P2
2023/09/12 00:00:05;;;;;;;40.53;29.88;;;18.90;99.90;;;;;;5007172;28;37910;-80
2023/09/12 00:02:31;;;;;;;38.33;27.88;;;18.90;99.90;;;;;;5002869;28;37870;-80
2023/09/12 00:04:57;;;;;;;40.17;29.83;;;18.90;99.90;;;;;;5011558;28;38849;-78
2023/09/12 00:07:23;;;;;;;40.55;29.05;;;18.80;99.90;;;;;;5002596;28;37476;-79
2023/09/12 00:09:49;;;;;;;39.70;29.65;;;18.80;99.90;;;;;;5007118;28;38342;-79
2023/09/12 00:12:16;;;;;;;44.85;31.17;;;18.70;99.90;;;;;;5009626;28;37491;-79
2023/09/12 00:14:42;;;;;;;44.97;30.55;;;18.70;99.90;;;;;;5003667;28;37711;-79
2023/09/12 00:17:09;;;;;;;42.13;29.92;;;18.70;99.90;;;;;;5009076;28;39073;-79
2023/09/12 00:19:35;;;;;;;46.35;30.58;;;18.80;99.90;;;;;;5005948;28;38337;-79
2023/09/12 00:22:03;;;;;;;42.03;30.55;;;18.70;99.90;;;;;;5009039;28;37442;-78
2023/09/12 00:24:29;;;;;;;41.13;30.58;;;18.70;99.90;;;;;;5011623;28;38762;-79
2023/09/12 00:26:55;;;;;;;46.25;31.23;;;18.70;99.90;;;;;;5012641;28;37406;-78
2023/09/12 00:29:21;;;;;;;38.38;29.58;;;18.70;99.90;;;;;;5002191;28;36652;-78
2023/09/12 00:31:47;;;;;;;42.33;30.08;;;18.70;99.90;;;;;;5007145;28;37039;-78
2023/09/12 00:34:17;;;;;;;47.72;31.85;;;18.60;99.90;;;;;;5004825;28;39819;-78
2023/09/12 00:36:44;;;;;;;39.58;27.88;;;18.60;99.90;;;;;;5014338;28;38128;-77
2023/09/12 00:39:10;;;;;;;37.83;27.58;;;18.70;99.90;;;;;;5012599;28;36674;-78
2023/09/12 00:41:36;;;;;;;55.05;31.33;;;18.70;99.90;;;;;;5001892;28;36649;-78
2023/09/12 00:44:02;;;;;;;35.15;28.02;;;18.60;99.90;;;;;;5005119;28;38950;-78
2023/09/12 00:46:29;;;;;;;52.53;32.60;;;18.50;99.90;;;;;;4991820;28;37178;-78
2023/09/12 00:48:57;;;;;;;39.45;27.33;;;18.50;99.90;;;;;;4994605;28;36693;-79
2023/09/12 00:51:25;;;;;;;38.55;26.65;;;18.50;99.90;;;;;;5000504;28;37218;-79
2023/09/12 00:53:51;;;;;;;42.80;28.05;;;18.50;99.90;;;;;;4999227;28;39178;-78
2023/09/12 00:56:17;;;;;;;39.35;26.58;;;18.50;99.90;;;;;;4998457;28;39926;-80
2023/09/12 00:58:45;;;;;;;36.80;25.92;;;18.40;99.90;;;;;;5001031;28;36878;-78
2023/09/12 01:03:48;;;;;;;38.47;26.23;;;18.50;99.90;;;;;;5460185;22;20781;-85
2023/09/12 01:06:19;;;;;;;37.80;24.73;;;18.50;99.90;;;;;;5045056;28;38909;-85
2023/09/12 01:08:46;;;;;;;35.85;24.98;;;18.40;99.90;;;;;;5048664;28;36967;-84
2023/09/12 01:11:14;;;;;;;34.20;24.38;;;18.40;99.90;;;;;;5050961;28;37857;-84
2023/09/12 01:13:40;;;;;;;34.40;24.45;;;18.40;99.90;;;;;;5037696;28;37761;-83
2023/09/12 01:16:06;;;;;;;31.98;24.27;;;18.40;99.90;;;;;;5037584;28;38899;-85
2023/09/12 01:18:33;;;;;;;36.47;24.40;;;18.40;99.90;;;;;;5044477;28;37625;-85
2023/09/12 01:21:02;;;;;;;39.20;26.33;;;18.40;99.90;;;;;;5037698;28;37151;-84
2023/09/12 01:24:13;;;;;;;48.13;28.40;;;18.40;99.90;;;;;;5020884;28;47076;-87
2023/09/12 01:26:43;;;;;;;38.30;24.23;;;18.40;99.90;;;;;;5027012;28;47367;-86
2023/09/12 01:29:12;;;;;;;38.30;24.88;;;18.30;99.90;;;;;;5041683;28;37070;-84
2023/09/12 01:31:39;;;;;;;31.42;22.60;;;18.30;99.90;;;;;;5042796;28;36376;-86
2023/09/12 01:34:12;;;;;;;34.42;24.17;;;18.30;99.90;;;;;;5036875;28;39111;-85
2023/09/12 01:36:38;;;;;;;34.90;23.90;;;18.30;99.90;;;;;;5037136;28;39393;-85
2023/09/12 01:39:05;;;;;;;36.88;23.42;;;18.30;99.90;;;;;;5032448;28;36817;-86
2023/09/12 01:41:34;;;;;;;27.70;21.05;;;18.30;99.90;;;;;;5030149;28;36627;-86
2023/09/12 01:44:03;;;;;;;29.92;21.98;;;18.20;99.90;;;;;;5031589;28;38645;-86
2023/09/12 01:46:31;;;;;;;26.33;21.27;;;18.30;99.90;;;;;;5032904;28;47005;-87
2023/09/12 01:48:59;;;;;;;27.27;20.73;;;18.20;99.90;;;;;;5045567;28;37943;-86
2023/09/12 01:51:26;;;;;;;30.55;22.08;;;18.20;99.90;;;;;;5048166;28;37737;-86
2023/09/12 01:53:54;;;;;;;33.38;22.13;;;18.20;99.90;;;;;;5048461;28;39025;-86
2023/09/12 01:56:21;;;;;;;33.33;22.70;;;18.20;99.90;;;;;;5016315;28;38022;-87
2023/09/12 01:58:47;;;;;;;31.20;22.33;;;18.20;99.90;;;;;;5029376;28;37876;-88
2023/09/12 02:01:14;;;;;;;33.45;23.63;;;18.20;99.90;;;;;;5029526;28;37991;-86
2023/09/12 02:03:40;;;;;;;30.63;21.88;;;18.20;99.90;;;;;;5023462;28;40667;-86
2023/09/12 02:06:06;;;;;;;31.27;21.23;;;18.20;99.90;;;;;;5041982;28;39143;-85
2023/09/12 02:08:33;;;;;;;28.63;20.52;;;18.20;99.90;;;;;;5024158;28;39778;-82
2023/09/12 02:10:59;;;;;;;30.30;20.73;;;18.30;99.90;;;;;;5043137;28;39052;-82
2023/09/12 02:13:25;;;;;;;35.92;23.65;;;18.20;99.90;;;;;;5034769;28;39541;-83
2023/09/12 02:15:59;;;;;;;33.13;22.00;;;18.20;99.90;;;;;;5024992;28;37210;-83
2023/09/12 02:18:25;;;;;;;27.35;20.20;;;18.20;99.90;;;;;;5023620;28;39432;-82
2023/09/12 02:20:51;;;;;;;32.60;20.83;;;18.20;99.90;;;;;;5044562;28;38195;-81
2023/09/12 02:23:17;;;;;;;49.65;26.80;;;18.20;99.90;;;;;;5049872;28;40056;-82
2023/09/12 02:25:43;;;;;;;32.88;22.33;;;18.10;99.90;;;;;;5025079;28;37354;-82
2023/09/12 02:28:09;;;;;;;36.33;21.35;;;18.20;99.90;;;;;;5028230;28;38435;-82
2023/09/12 02:30:40;;;;;;;32.15;23.15;;;18.10;99.90;;;;;;5036287;28;38131;-82
2023/09/12 02:33:06;;;;;;;38.28;23.38;;;18.10;99.90;;;;;;5022046;28;39645;-82
2023/09/12 02:35:32;;;;;;;40.55;24.55;;;18.10;99.90;;;;;;5046126;28;37977;-82
2023/09/12 02:37:58;;;;;;;36.58;23.48;;;18.20;99.90;;;;;;5044948;28;38879;-82
2023/09/12 02:40:25;;;;;;;35.50;22.60;;;18.20;99.90;;;;;;5041406;28;37709;-82
2023/09/12 02:42:51;;;;;;;36.67;23.35;;;18.20;99.90;;;;;;5033330;28;39444;-83
2023/09/12 02:45:17;;;;;;;36.15;23.45;;;18.30;99.90;;;;;;5051217;28;39178;-82
2023/09/12 02:47:45;;;;;;;40.63;23.50;;;18.30;99.90;;;;;;5044018;28;38313;-83
2023/09/12 02:50:11;;;;;;;33.97;21.33;;;18.30;99.90;;;;;;5027253;28;38143;-82
2023/09/12 02:52:37;;;;;;;36.75;23.05;;;18.30;99.90;;;;;;5022975;28;39790;-83
2023/09/12 02:55:03;;;;;;;32.88;20.42;;;18.30;99.90;;;;;;5044185;28;38864;-83
2023/09/12 02:57:29;;;;;;;34.83;21.38;;;18.30;99.90;;;;;;5043093;28;37218;-82
2023/09/12 02:59:56;;;;;;;44.47;26.35;;;18.30;99.90;;;;;;5026704;28;39537;-83
2023/09/12 03:02:22;;;;;;;35.58;22.27;;;18.30;99.90;;;;;;5044329;28;39561;-81
2023/09/12 03:04:48;;;;;;;36.20;23.60;;;18.30;99.90;;;;;;5053022;28;38427;-82
2023/09/12 03:07:14;;;;;;;39.05;24.70;;;18.30;99.90;;;;;;5023032;28;38234;-82
2023/09/12 03:09:40;;;;;;;46.85;25.38;;;18.30;99.90;;;;;;5026172;28;38922;-82
2023/09/12 03:12:07;;;;;;;37.60;24.02;;;18.20;99.90;;;;;;5044376;28;37772;-82
2023/09/12 03:14:33;;;;;;;47.60;26.73;;;18.20;99.90;;;;;;5058620;28;39339;-83
2023/09/12 03:16:59;;;;;;;40.95;24.58;;;18.30;99.90;;;;;;5038513;28;38498;-82
2023/09/12 03:19:25;;;;;;;43.00;27.15;;;18.30;99.90;;;;;;5033002;28;38440;-84
2023/09/12 03:21:51;;;;;;;42.45;26.85;;;18.30;99.90;;;;;;5045621;28;40438;-83
2023/09/12 03:24:18;;;;;;;44.92;27.40;;;18.30;99.90;;;;;;5054974;28;38070;-82
2023/09/12 03:26:44;;;;;;;43.25;24.73;;;18.40;99.90;;;;;;5048571;28;37606;-83
2023/09/12 03:29:10;;;;;;;48.25;28.10;;;18.40;99.90;;;;;;5029610;28;38124;-83
2023/09/12 03:31:37;;;;;;;48.40;28.42;;;18.40;99.90;;;;;;5050538;28;38705;-82
2023/09/12 03:34:03;;;;;;;43.75;27.90;;;18.40;99.90;;;;;;5027878;28;37887;-83
2023/09/12 03:36:29;;;;;;;64.20;32.80;;;18.40;99.90;;;;;;5025391;28;38422;-84
2023/09/12 03:38:55;;;;;;;52.70;28.25;;;18.40;99.90;;;;;;5025135;28;37643;-81
2023/09/12 03:41:25;;;;;;;56.35;30.92;;;18.40;99.90;;;;;;5045748;28;38120;-80
2023/09/12 03:43:55;;;;;;;57.22;30.77;;;18.40;99.90;;;;;;5027720;28;38377;-82
2023/09/12 03:46:22;;;;;;;45.38;27.02;;;18.50;99.90;;;;;;5049492;28;37758;-82
2023/09/12 03:48:49;;;;;;;51.22;28.42;;;18.40;99.90;;;;;;5028539;28;37972;-82
2023/09/12 03:51:15;;;;;;;49.92;27.55;;;18.50;99.90;;;;;;5029250;28;37735;-81
2023/09/12 03:53:41;;;;;;;76.38;35.80;;;18.50;99.90;;;;;;5022957;28;38718;-82
2023/09/12 03:56:10;;;;;;;75.75;37.80;;;18.50;99.90;;;;;;5030871;28;37786;-82
2023/09/12 03:58:36;;;;;;;70.85;37.33;;;18.50;99.90;;;;;;5055103;28;37313;-83
2023/09/12 04:01:02;;;;;;;69.85;36.67;;;18.50;99.90;;;;;;5035332;28;38061;-83
2023/09/12 04:03:28;;;;;;;85.05;39.95;;;18.50;99.90;;;;;;5038047;28;37157;-82
2023/09/12 04:05:54;;;;;;;59.22;35.08;;;18.50;99.90;;;;;;5039817;28;36633;-83
2023/09/12 04:08:20;;;;;;;72.38;35.55;;;18.50;99.90;;;;;;5036739;28;37759;-82
2023/09/12 04:10:46;;;;;;;56.92;33.15;;;18.50;99.90;;;;;;5049886;28;38059;-83
2023/09/12 04:13:12;;;;;;;98.78;40.30;;;18.50;99.90;;;;;;5052044;28;38851;-82
2023/09/12 04:15:39;;;;;;;74.03;38.90;;;18.60;99.90;;;;;;5028128;28;36804;-81
2023/09/12 04:18:05;;;;;;;75.63;39.53;;;18.60;99.90;;;;;;5032968;28;37280;-83
2023/09/12 04:20:31;;;;;;;74.43;38.13;;;18.60;99.90;;;;;;5041361;28;39038;-81
2023/09/12 04:23:00;;;;;;;79.60;41.20;;;18.70;99.90;;;;;;5029001;28;36970;-82
2023/09/12 04:25:26;;;;;;;83.20;40.88;;;18.70;99.90;;;;;;5034364;28;38099;-83
2023/09/12 04:27:52;;;;;;;84.43;40.90;;;18.70;99.90;;;;;;5031899;28;36422;-82
2023/09/12 04:30:18;;;;;;;81.88;41.92;;;18.70;99.90;;;;;;5032580;28;39392;-82
2023/09/12 04:32:45;;;;;;;118.72;50.08;;;18.80;99.90;;;;;;5022236;28;37183;-82
2023/09/12 04:35:11;;;;;;;80.97;41.30;;;18.80;99.90;;;;;;5048931;28;36891;-82
2023/09/12 04:37:37;;;;;;;82.75;43.40;;;18.80;99.90;;;;;;5025997;28;36248;-82
2023/09/12 04:40:05;;;;;;;75.55;41.95;;;18.80;99.90;;;;;;5031960;28;38817;-81
2023/09/12 04:42:32;;;;;;;82.18;43.17;;;18.90;99.90;;;;;;5018972;28;47756;-82
2023/09/12 04:44:58;;;;;;;85.53;46.33;;;18.90;99.90;;;;;;5045009;28;36642;-82
2023/09/12 04:47:24;;;;;;;92.25;46.70;;;18.90;99.90;;;;;;5040015;28;37861;-82
2023/09/12 04:49:51;;;;;;;155.07;53.42;;;18.90;99.90;;;;;;5043420;28;38683;-82
2023/09/12 04:52:18;;;;;;;120.22;51.85;;;18.90;99.90;;;;;;5027476;28;37180;-82
2023/09/12 04:54:44;;;;;;;104.18;50.20;;;18.90;99.90;;;;;;5040322;28;37767;-82
2023/09/12 04:57:10;;;;;;;85.95;46.25;;;18.90;99.90;;;;;;5041926;28;38337;-82
2023/09/12 04:59:36;;;;;;;88.18;47.45;;;18.90;99.90;;;;;;5026362;28;37923;-82
2023/09/12 05:02:03;;;;;;;135.27;53.25;;;19.00;99.90;;;;;;5055343;28;39587;-83
2023/09/12 05:04:29;;;;;;;123.32;56.05;;;19.00;99.90;;;;;;5024292;28;39146;-83
2023/09/12 05:06:55;;;;;;;100.32;48.90;;;19.00;99.90;;;;;;5028212;28;39183;-83
2023/09/12 05:09:21;;;;;;;127.32;58.85;;;19.00;99.90;;;;;;5046238;28;38370;-82
2023/09/12 05:11:47;;;;;;;103.30;52.10;;;19.00;99.90;;;;;;5035974;28;37283;-82
2023/09/12 05:14:16;;;;;;;110.53;51.55;;;19.00;99.90;;;;;;5012209;28;38576;-82
2023/09/12 05:16:43;;;;;;;97.78;47.75;;;19.10;99.90;;;;;;5019842;28;36581;-82
2023/09/12 05:19:09;;;;;;;110.28;53.70;;;19.10;99.90;;;;;;5023150;28;39653;-82
2023/09/12 05:21:35;;;;;;;92.00;50.42;;;19.10;99.90;;;;;;5019591;28;38617;-81
2023/09/12 05:24:01;;;;;;;108.65;52.00;;;19.10;99.90;;;;;;5040670;28;37591;-80
2023/09/12 05:26:27;;;;;;;96.47;50.22;;;19.00;99.90;;;;;;5022247;28;39408;-81
2023/09/12 05:28:53;;;;;;;90.55;48.33;;;19.10;99.90;;;;;;5019391;28;40889;-80
2023/09/12 05:31:20;;;;;;;93.40;48.88;;;19.10;99.90;;;;;;5021848;28;39968;-80
2023/09/12 05:33:46;;;;;;;94.70;47.42;;;19.10;99.90;;;;;;5041870;28;37561;-81
2023/09/12 05:36:12;;;;;;;86.07;46.85;;;19.10;99.90;;;;;;5040323;28;36897;-81
2023/09/12 05:38:38;;;;;;;102.95;52.50;;;19.10;99.90;;;;;;5040294;28;38398;-79
2023/09/12 05:41:04;;;;;;;150.63;59.38;;;19.10;99.90;;;;;;5015983;28;39381;-81
2023/09/12 05:43:30;;;;;;;128.40;57.72;;;19.00;99.90;;;;;;5021967;28;39608;-81
2023/09/12 05:45:58;;;;;;;138.35;61.42;;;19.00;99.90;;;;;;5020693;28;38336;-81
2023/09/12 05:48:24;;;;;;;101.18;53.38;;;19.00;99.90;;;;;;5017020;28;40501;-83
2023/09/12 05:50:50;;;;;;;115.13;54.92;;;19.00;99.90;;;;;;5022851;28;37512;-83
2023/09/12 05:53:16;;;;;;;112.50;55.85;;;19.00;99.90;;;;;;5030254;28;37835;-83
2023/09/12 05:55:42;;;;;;;95.15;51.47;;;19.00;99.90;;;;;;5043258;28;37843;-84
2023/09/12 05:58:09;;;;;;;103.30;54.53;;;19.10;99.90;;;;;;5028533;28;37686;-84
2023/09/12 06:00:35;;;;;;;107.90;53.05;;;19.00;99.90;;;;;;5019097;28;38865;-83
2023/09/12 06:03:01;;;;;;;106.70;54.20;;;19.10;99.90;;;;;;5037532;28;38674;-83
2023/09/12 06:05:27;;;;;;;96.80;52.40;;;19.10;99.90;;;;;;5028005;28;46923;-81
2023/09/12 06:07:53;;;;;;;114.95;56.17;;;19.10;99.90;;;;;;5046047;28;37536;-82
2023/09/12 06:10:19;;;;;;;110.68;54.25;;;19.10;99.90;;;;;;5045285;28;39358;-83
2023/09/12 06:12:46;;;;;;;105.95;52.22;;;19.10;99.90;;;;;;5047377;28;38723;-83
2023/09/12 06:15:12;;;;;;;99.70;51.35;;;19.10;99.90;;;;;;5039963;28;35881;-82
2023/09/12 06:17:38;;;;;;;98.57;50.00;;;19.10;99.90;;;;;;5051676;28;40160;-83
2023/09/12 06:20:08;;;;;;;84.47;47.08;;;19.10;99.90;;;;;;5031751;28;39073;-83
2023/09/12 06:22:34;;;;;;;88.03;47.33;;;19.10;99.90;;;;;;5025770;28;46340;-84
2023/09/12 06:25:00;;;;;;;73.70;44.25;;;19.10;99.90;;;;;;5023755;28;37737;-84
2023/09/12 06:27:26;;;;;;;91.22;46.83;;;19.10;99.90;;;;;;5026129;28;40469;-83
2023/09/12 06:29:53;;;;;;;86.50;45.90;;;19.10;99.90;;;;;;5024710;28;39023;-83
2023/09/12 06:32:19;;;;;;;89.25;45.45;;;19.10;99.90;;;;;;5023335;28;38653;-84
2023/09/12 06:34:45;;;;;;;77.75;43.40;;;19.10;99.90;;;;;;5026994;28;37735;-85
2023/09/12 06:37:11;;;;;;;79.53;44.25;;;19.20;99.90;;;;;;5048356;28;38592;-84
2023/09/12 06:39:38;;;;;;;80.75;42.22;;;19.20;99.90;;;;;;5048494;28;38237;-84
2023/09/12 06:42:04;;;;;;;75.70;40.65;;;19.20;99.90;;;;;;5031728;28;36750;-84
2023/09/12 06:44:32;;;;;;;79.03;43.00;;;19.20;99.90;;;;;;5047659;28;37988;-83
2023/09/12 06:46:58;;;;;;;81.10;42.97;;;19.30;99.90;;;;;;5029061;28;39884;-84
2023/09/12 06:49:24;;;;;;;81.07;42.75;;;19.20;99.90;;;;;;5033677;28;39817;-82
2023/09/12 06:51:50;;;;;;;66.45;38.50;;;19.30;99.90;;;;;;5041375;28;36540;-83
2023/09/12 06:54:16;;;;;;;72.35;38.47;;;19.40;99.90;;;;;;5022147;28;38558;-84
2023/09/12 06:56:42;;;;;;;60.85;35.40;;;19.30;99.90;;;;;;5042956;28;38841;-84
2023/09/12 06:59:09;;;;;;;64.18;36.72;;;19.40;99.90;;;;;;5031419;28;38972;-82
2023/09/12 07:01:35;;;;;;;60.28;34.35;;;19.50;99.90;;;;;;5042539;28;38378;-82
2023/09/12 07:04:01;;;;;;;66.00;35.40;;;19.50;99.90;;;;;;5050489;28;37484;-82
2023/09/12 07:06:27;;;;;;;55.42;33.85;;;19.50;99.90;;;;;;5012824;28;47175;-81
2023/09/12 07:08:54;;;;;;;55.40;33.63;;;19.50;99.90;;;;;;5028072;28;38120;-81
2023/09/12 07:11:20;;;;;;;69.07;38.60;;;19.50;99.90;;;;;;5023908;28;38713;-83
2023/09/12 07:13:46;;;;;;;56.70;36.25;;;19.40;99.90;;;;;;5023989;28;37638;-82
2023/09/12 07:16:12;;;;;;;78.63;41.13;;;19.50;99.90;;;;;;5022131;28;37794;-83
2023/09/12 07:18:38;;;;;;;60.30;37.00;;;19.50;99.90;;;;;;5029513;28;39045;-83
2023/09/12 07:21:06;;;;;;;64.05;38.45;;;19.60;99.90;;;;;;5025969;28;39459;-83
2023/09/12 07:23:33;;;;;;;66.38;41.28;;;19.70;99.90;;;;;;5022079;28;38040;-84
2023/09/12 07:25:59;;;;;;;69.72;42.90;;;19.70;99.90;;;;;;5024713;28;39339;-83
2023/09/12 07:28:26;;;;;;;67.20;40.28;;;19.60;99.90;;;;;;5041042;28;39262;-84
2023/09/12 07:30:54;;;;;;;61.50;39.45;;;19.70;99.90;;;;;;5031023;28;38106;-82
2023/09/12 07:33:21;;;;;;;61.08;39.28;;;19.80;99.90;;;;;;5029586;28;37231;-82
2023/09/12 07:35:49;;;;;;;61.03;40.58;;;19.90;99.90;;;;;;5047991;28;38903;-81
2023/09/12 07:38:15;;;;;;;61.60;39.92;;;20.00;99.90;;;;;;5036020;28;39951;-82
2023/09/12 07:40:42;;;;;;;64.15;40.72;;;20.10;99.90;;;;;;5046842;28;37803;-80
2023/09/12 07:43:09;;;;;;;63.30;40.10;;;20.10;99.90;;;;;;5044033;28;38209;-81
2023/09/12 07:45:37;;;;;;;75.85;45.42;;;20.20;99.90;;;;;;5045261;28;39502;-81
2023/09/12 07:48:08;;;;;;;71.97;44.55;;;20.30;99.90;;;;;;5035210;28;38209;-82
2023/09/12 07:50:34;;;;;;;71.35;43.97;;;20.30;99.90;;;;;;5030785;28;36912;-83
2023/09/12 07:53:00;;;;;;;62.63;40.88;;;20.20;99.90;;;;;;5043428;28;37331;-83
2023/09/12 07:55:30;;;;;;;63.47;41.03;;;20.30;99.90;;;;;;5046879;28;39124;-84
2023/09/12 07:57:56;;;;;;;58.85;40.83;;;20.40;99.90;;;;;;5029273;28;39808;-83
2023/09/12 08:00:24;;;;;;;62.17;41.03;;;20.30;99.90;;;;;;5025507;28;38233;-83
2023/09/12 08:02:50;;;;;;;56.15;37.58;;;20.20;99.90;;;;;;5033139;28;36215;-83
2023/09/12 08:05:16;;;;;;;57.75;38.10;;;20.30;99.90;;;;;;5029684;28;37650;-82
2023/09/12 08:07:42;;;;;;;63.35;40.35;;;20.40;99.90;;;;;;5022817;28;39436;-81
2023/09/12 08:10:09;;;;;;;60.60;38.35;;;20.70;99.90;;;;;;5040214;28;37665;-81
2023/09/12 08:12:38;;;;;;;54.75;35.88;;;20.50;99.90;;;;;;5021352;28;37099;-81
2023/09/12 08:15:05;;;;;;;51.00;34.95;;;20.50;99.90;;;;;;5041062;28;38548;-81
2023/09/12 08:17:32;;;;;;;52.50;35.47;;;20.40;99.90;;;;;;5037559;28;46881;-82
2023/09/12 08:19:59;;;;;;;55.40;36.40;;;20.50;99.90;;;;;;5029411;28;39663;-81
2023/09/12 08:22:25;;;;;;;50.78;35.55;;;20.50;99.90;;;;;;5017043;28;37833;-82
2023/09/12 08:24:52;;;;;;;54.28;36.65;;;20.40;99.90;;;;;;5043213;28;38757;-82
2023/09/12 08:27:18;;;;;;;53.70;36.60;;;20.60;99.90;;;;;;5025702;28;38078;-80
2023/09/12 08:29:46;;;;;;;47.67;34.35;;;20.70;99.90;;;;;;5030028;28;37110;-80
2023/09/12 08:32:12;;;;;;;54.40;34.42;;;20.50;99.90;;;;;;5028391;28;39147;-82
2023/09/12 08:34:38;;;;;;;50.63;35.33;;;20.60;99.90;;;;;;5044419;28;39375;-81
2023/09/12 08:37:05;;;;;;;48.20;33.08;;;20.60;99.90;;;;;;5047475;28;38009;-82
2023/09/12 08:39:42;;;;;;;53.50;34.58;;;20.60;99.90;;;;;;5038402;28;37064;-81
2023/09/12 08:42:13;;;;;;;46.15;33.95;;;20.70;99.90;;;;;;5041352;28;38272;-82
2023/09/12 08:44:43;;;;;;;47.00;33.38;;;20.70;99.90;;;;;;5030927;28;39937;-82
2023/09/12 08:47:10;;;;;;;49.95;34.15;;;20.80;99.90;;;;;;5034992;28;38560;-82
2023/09/12 08:49:37;;;;;;;51.30;34.10;;;20.90;99.90;;;;;;5042866;28;37717;-82
2023/09/12 08:52:07;;;;;;;46.38;32.95;;;20.90;99.90;;;;;;5020421;28;36361;-81
2023/09/12 08:54:33;;;;;;;51.83;35.33;;;21.00;99.90;;;;;;5047471;28;38793;-81
2023/09/12 08:57:05;;;;;;;47.65;33.97;;;20.90;99.90;;;;;;5022649;28;40400;-79
2023/09/12 08:59:35;;;;;;;45.35;33.08;;;20.80;99.90;;;;;;5022317;28;46328;-81
2023/09/12 09:02:05;;;;;;;40.28;30.52;;;20.90;99.90;;;;;;5033540;28;37672;-81
2023/09/12 09:04:34;;;;;;;41.05;32.20;;;21.00;99.90;;;;;;5029125;28;48255;-81
2023/09/12 09:07:03;;;;;;;49.33;33.58;;;21.10;99.90;;;;;;5030901;28;38691;-81
2023/09/12 09:09:29;;;;;;;50.95;33.83;;;21.20;99.90;;;;;;5015993;28;48736;-80
2023/09/12 09:11:56;;;;;;;47.50;32.15;;;21.20;99.90;;;;;;5031531;28;38187;-81
2023/09/12 09:14:25;;;;;;;46.38;31.33;;;21.40;99.90;;;;;;5020445;28;39728;-81
2023/09/12 09:16:51;;;;;;;42.40;29.90;;;21.50;99.90;;;;;;5046959;28;38763;-81
2023/09/12 09:19:19;;;;;;;45.83;30.67;;;21.70;99.90;;;;;;5040662;28;38881;-80
2023/09/12 09:21:45;;;;;;;42.13;30.80;;;21.70;99.90;;;;;;5030783;28;38692;-82
2023/09/12 09:24:15;;;;;;;45.20;32.03;;;21.50;99.90;;;;;;5025549;28;37491;-82
2023/09/12 09:26:42;;;;;;;49.72;31.70;;;21.40;99.90;;;;;;5026650;28;37252;-81
2023/09/12 09:29:10;;;;;;;45.72;31.42;;;21.40;99.90;;;;;;5025294;28;37003;-80
2023/09/12 09:31:41;;;;;;;46.53;29.55;;;21.40;99.90;;;;;;5047477;28;39021;-81
2023/09/12 09:34:12;;;;;;;42.13;30.25;;;21.40;99.90;;;;;;5028221;28;39802;-84
2023/09/12 09:36:42;;;;;;;45.38;30.88;;;21.50;99.90;;;;;;5037286;28;39904;-82
2023/09/12 09:39:10;;;;;;;46.63;31.33;;;21.50;99.90;;;;;;5022298;28;36858;-83
2023/09/12 09:41:37;;;;;;;42.42;28.92;;;21.50;99.90;;;;;;5027476;28;37571;-83
2023/09/12 09:44:05;;;;;;;40.58;28.73;;;21.40;99.90;;;;;;5049115;28;38436;-83
2023/09/12 09:46:32;;;;;;;37.58;27.88;;;21.50;99.90;;;;;;5032409;28;40038;-82
2023/09/12 09:49:01;;;;;;;38.10;27.52;;;21.60;99.90;;;;;;5032967;28;39055;-82
2023/09/12 09:51:29;;;;;;;38.78;27.05;;;21.60;99.90;;;;;;5031280;28;47198;-84
2023/09/12 09:54:00;;;;;;;39.50;27.15;;;21.60;99.90;;;;;;5024374;28;39258;-82
2023/09/12 09:56:26;;;;;;;40.67;27.33;;;21.60;99.90;;;;;;5045756;28;39784;-81
2023/09/12 09:58:56;;;;;;;38.72;26.73;;;21.70;99.90;;;;;;5029488;28;38747;-77
2023/09/12 10:01:28;;;;;;;36.88;25.42;;;21.90;99.90;;;;;;5024085;28;37850;-81
2023/09/12 10:03:59;;;;;;;39.65;27.75;;;22.00;99.90;;;;;;5028104;28;35502;-79
2023/09/12 10:06:27;;;;;;;36.58;25.00;;;22.10;99.90;;;;;;5027651;28;39067;-77
2023/09/12 10:08:54;;;;;;;34.83;24.58;;;22.10;99.90;;;;;;5030115;28;39436;-79
2023/09/12 10:11:24;;;;;;;42.15;28.75;;;22.10;99.90;;;;;;4998314;28;38067;-78
2023/09/12 10:13:53;;;;;;;42.38;29.80;;;22.40;99.90;;;;;;5008123;28;38678;-78
2023/09/12 10:16:31;;;;;;;40.53;28.58;;;22.40;99.90;;;;;;5013016;28;37222;-78
2023/09/12 10:19:04;;;;;;;40.85;26.52;;;22.60;99.90;;;;;;5022962;28;37951;-78
2023/09/12 10:21:32;;;;;;;42.53;28.67;;;22.80;99.90;;;;;;5025265;28;48268;-79
2023/09/12 10:24:21;;;;;;;43.70;27.23;;;22.60;99.90;;;;;;5014320;28;39557;-82
2023/09/12 10:26:50;;;;;;;38.53;26.60;;;22.70;99.90;;;;;;5044924;28;48554;-83
2023/09/12 10:29:16;;;;;;;37.70;26.48;;;22.50;99.90;;;;;;5026031;28;38381;-80
2023/09/12 10:31:43;;;;;;;37.85;26.25;;;22.40;99.90;;;;;;5043935;28;38170;-79
2023/09/12 10:34:20;;;;;;;42.58;26.85;;;22.60;99.90;;;;;;5033816;28;37995;-80
2023/09/12 10:36:47;;;;;;;40.80;25.88;;;22.80;99.90;;;;;;5017423;28;38962;-81
2023/09/12 10:39:26;;;;;;;37.00;26.05;;;22.60;99.90;;;;;;5024758;28;36768;-83
2023/09/12 10:41:58;;;;;;;33.67;23.92;;;22.30;99.90;;;;;;5026593;28;37188;-80
2023/09/12 10:44:25;;;;;;;39.10;26.40;;;22.20;99.90;;;;;;4999489;28;38774;-82
2023/09/12 10:46:55;;;;;;;44.35;27.15;;;22.20;99.90;;;;;;5039559;28;39763;-80
2023/09/12 10:49:22;;;;;;;35.60;24.98;;;22.10;99.90;;;;;;5024185;28;38313;-80
2023/09/12 10:51:49;;;;;;;39.65;25.50;;;22.10;99.90;;;;;;5023818;28;37424;-84
2023/09/12 10:54:26;;;;;;;36.10;25.27;;;22.30;99.90;;;;;;5043879;28;38176;-80
2023/09/12 10:57:06;;;;;;;33.28;22.85;;;22.20;99.90;;;;;;5032002;28;38516;-81
2023/09/12 10:59:35;;;;;;;33.13;21.67;;;22.20;99.90;;;;;;5033796;28;47151;-83
2023/09/12 11:02:35;;;;;;;36.88;25.33;;;22.40;99.90;;;;;;5036402;28;37364;-83
2023/09/12 11:05:43;;;;;;;41.90;28.17;;;22.50;99.90;;;;;;5041865;28;39797;-89
2023/09/12 11:08:09;;;;;;;41.50;26.08;;;22.60;99.90;;;;;;5029124;28;47398;-79
2023/09/12 11:10:46;;;;;;;36.03;24.98;;;22.80;99.90;;;;;;5034139;28;39897;-82
2023/09/12 11:13:18;;;;;;;35.63;24.67;;;23.00;99.90;;;;;;5037858;28;37923;-82
2023/09/12 11:16:14;;;;;;;38.42;26.80;;;23.20;99.90;;;;;;5039806;28;39504;-85
2023/09/12 11:19:26;;;;;;;38.65;23.60;;;23.10;99.90;;;;;;5007962;28;47721;-83
2023/09/12 11:21:55;;;;;;;30.40;20.80;;;23.20;99.90;;;;;;5021724;28;47346;-82
2023/09/12 11:24:25;;;;;;;30.95;20.90;;;23.30;99.90;;;;;;5015949;28;37380;-80
2023/09/12 11:27:07;;;;;;;33.97;22.08;;;23.40;99.90;;;;;;5024959;28;38578;-79
2023/09/12 11:29:45;;;;;;;35.15;23.85;;;23.60;99.90;;;;;;5032806;28;48752;-80
2023/09/12 11:32:28;;;;;;;34.17;22.50;;;23.60;99.90;;;;;;5031161;28;38759;-85
2023/09/12 11:34:55;;;;;;;30.52;21.58;;;23.70;99.90;;;;;;5035498;28;37581;-79
2023/09/12 11:37:26;;;;;;;32.90;22.55;;;23.70;99.90;;;;;;5020033;28;38045;-83
2023/09/12 11:39:54;;;;;;;31.08;22.65;;;23.70;99.90;;;;;;5021514;28;38767;-82
2023/09/12 11:42:25;;;;;;;33.17;20.75;;;23.60;99.90;;;;;;5031499;28;38317;-78
2023/09/12 11:44:52;;;;;;;35.60;22.53;;;23.40;99.90;;;;;;5043320;28;38549;-80
2023/09/12 11:47:18;;;;;;;33.80;24.05;;;23.20;99.90;;;;;;5022040;28;37564;-79
2023/09/12 11:49:44;;;;;;;32.67;23.25;;;23.10;99.90;;;;;;5041930;28;39700;-78
2023/09/12 11:52:13;;;;;;;31.25;21.90;;;23.10;99.90;;;;;;5020069;28;38011;-79
2023/09/12 11:54:43;;;;;;;32.65;21.98;;;23.10;99.90;;;;;;5039550;28;38930;-80
2023/09/12 11:57:12;;;;;;;46.22;26.58;;;23.20;99.90;;;;;;5034020;28;39859;-87
2023/09/12 11:59:50;;;;;;;33.03;22.35;;;23.10;99.90;;;;;;5023706;28;37320;-79
2023/09/12 12:02:16;;;;;;;37.13;24.55;;;23.00;99.90;;;;;;5026455;28;37511;-79
2023/09/12 12:04:43;;;;;;;34.03;22.50;;;23.00;99.90;;;;;;5028759;28;36813;-84
2023/09/12 12:07:10;;;;;;;35.30;23.38;;;23.20;99.90;;;;;;5029819;28;40787;-80
2023/09/12 12:09:36;;;;;;;35.08;23.45;;;23.40;99.90;;;;;;5043894;28;37784;-85
2023/09/12 12:12:14;;;;;;;35.53;24.20;;;23.40;99.90;;;;;;5045958;28;37863;-82
2023/09/12 12:14:41;;;;;;;34.20;23.92;;;23.40;99.90;;;;;;5041396;28;35855;-82
2023/09/12 12:17:09;;;;;;;36.83;24.83;;;23.30;99.90;;;;;;5029981;28;38022;-82
2023/09/12 12:19:37;;;;;;;37.50;24.58;;;23.20;99.90;;;;;;5023281;28;38426;-81
2023/09/12 12:22:09;;;;;;;33.70;22.88;;;23.10;99.90;;;;;;5020525;28;37225;-85
2023/09/12 12:24:47;;;;;;;31.52;21.63;;;23.20;99.90;;;;;;5027135;28;36529;-85
2023/09/12 12:27:16;;;;;;;31.38;22.30;;;23.20;99.90;;;;;;5029452;28;38087;-84
2023/09/12 12:29:43;;;;;;;34.55;23.85;;;23.20;99.90;;;;;;5045043;28;38230;-83
2023/09/12 12:32:10;;;;;;;34.65;25.27;;;23.30;99.90;;;;;;5023621;28;39339;-80